createdAt,value
2018-02-03T12:17:24.776Z,83.84
2018-02-03T12:18:24.734Z,84.6
2018-02-03T12:19:24.645Z,83.91
2018-02-03T12:20:24.630Z,82.75
2018-02-03T12:21:24.692Z,82.86
2018-02-03T12:22:24.638Z,84.01
2018-02-03T12:23:24.680Z,84.13
2018-02-03T12:24:24.654Z,84.11
2018-02-03T12:25:24.677Z,81.87
2018-02-03T12:26:24.869Z,82.95
2018-02-03T12:27:24.672Z,81.73
2018-02-03T12:28:24.647Z,82.09
2018-02-03T12:29:24.718Z,81.84
2018-02-03T12:30:24.642Z,81.7
2018-02-03T12:31:24.644Z,81.34
2018-02-03T12:32:24.675Z,81.53
2018-02-03T12:33:24.895Z,81.44
2018-02-03T12:34:24.889Z,81.07
2018-02-03T12:35:24.769Z,81.01
2018-02-03T12:36:24.643Z,80.87
2018-02-03T12:37:24.654Z,81.44
2018-02-03T12:38:24.671Z,80.9
2018-02-03T12:39:24.641Z,80.16
2018-02-03T12:40:24.649Z,80.5
2018-02-03T12:41:24.656Z,80.65
2018-02-03T12:42:24.642Z,80.64
2018-02-03T12:43:24.670Z,81.05
2018-02-03T12:44:24.667Z,81.35
2018-02-03T12:45:24.648Z,81.33
2018-02-03T12:46:24.657Z,81.11
2018-02-03T12:47:24.674Z,81.73
2018-02-03T12:48:24.671Z,81.34
2018-02-03T12:49:24.654Z,79.28
2018-02-03T12:50:24.663Z,80.22
2018-02-03T12:51:24.683Z,78.78
2018-02-03T12:52:24.666Z,78.73
2018-02-03T12:53:24.661Z,79.62
2018-02-03T12:54:24.678Z,80.14
2018-02-03T12:55:24.684Z,79.88
2018-02-03T12:56:24.694Z,79.43
2018-02-03T12:57:24.650Z,79.74
2018-02-03T12:58:24.707Z,78.8
2018-02-03T12:59:24.802Z,80.14
2018-02-03T13:00:24.698Z,79.64
2018-02-03T13:01:24.659Z,80.05
2018-02-03T13:02:24.665Z,80.36
2018-02-03T13:03:24.694Z,80.07
2018-02-03T13:04:24.658Z,80.52
2018-02-03T13:05:24.706Z,80.9
2018-02-03T13:06:24.671Z,80.74
2018-02-03T13:07:24.665Z,80.7
2018-02-03T13:08:24.645Z,81.04
2018-02-03T13:09:24.647Z,81.19
2018-02-03T13:10:24.674Z,80.52
2018-02-03T13:11:24.661Z,79.7
2018-02-03T13:12:24.642Z,79.16
2018-02-03T13:13:24.670Z,79.37
2018-02-03T13:14:24.704Z,79.69
2018-02-03T13:15:24.671Z,80.19
2018-02-03T13:16:24.767Z,80.36
2018-02-03T13:17:24.805Z,79.86
2018-02-03T13:18:24.572Z,80.42
2018-02-03T13:19:24.568Z,80.79
2018-02-03T13:20:24.562Z,80.64
2018-02-03T13:21:24.583Z,80.16
2018-02-03T13:22:24.617Z,79.86
2018-02-03T13:23:24.596Z,79.99
2018-02-03T13:24:24.590Z,79.31
2018-02-03T13:25:24.580Z,78.44
2018-02-03T13:26:24.664Z,77.99
2018-02-03T13:27:24.663Z,78.9
2018-02-03T13:28:24.586Z,78.66
2018-02-03T13:29:24.579Z,79.36
2018-02-03T13:30:24.583Z,79.39
2018-02-03T13:32:24.573Z,78.43
2018-02-03T13:33:24.622Z,79.02
2018-02-03T13:34:25.023Z,78.54
2018-02-03T13:35:24.558Z,79.09
2018-02-03T13:36:24.578Z,79.09
2018-02-03T13:37:24.718Z,79.19
2018-02-03T13:38:24.596Z,79.9
2018-02-03T13:39:24.592Z,79.98
2018-02-03T13:40:24.563Z,79.76
2018-02-03T13:41:24.557Z,79.71
2018-02-03T13:42:24.572Z,79.29
2018-02-03T13:43:24.569Z,78.09
2018-02-03T13:44:24.589Z,78.66
2018-02-03T13:45:24.591Z,78.3
2018-02-03T13:46:24.554Z,78.54
2018-02-03T13:47:24.556Z,78.49
2018-02-03T13:48:24.625Z,78.68
2018-02-03T13:49:24.654Z,78.49
2018-02-03T13:50:24.658Z,78.27
2018-02-03T13:51:24.665Z,78.98
2018-02-03T13:52:24.639Z,77.14
2018-02-03T13:53:25.075Z,77.91
2018-02-03T13:54:24.659Z,78.25
2018-02-03T13:55:24.640Z,77.44
2018-02-03T13:56:24.721Z,77.42
2018-02-03T13:57:24.638Z,78.33
2018-02-03T13:58:24.648Z,78.22
2018-02-03T13:59:24.654Z,77.93
2018-02-03T14:00:24.713Z,78.72
2018-02-03T14:01:24.662Z,78.9
2018-02-03T14:02:24.673Z,79.07
2018-02-03T14:03:24.673Z,79.66
2018-02-03T14:04:24.642Z,78.86
2018-02-03T14:05:24.686Z,79.46
2018-02-03T14:06:24.686Z,79.01
2018-02-03T14:07:24.711Z,78.35
2018-02-03T14:08:24.668Z,79.04
2018-02-03T14:09:24.658Z,78.07
2018-02-03T14:10:24.797Z,78.65
2018-02-03T14:11:24.722Z,78.47
2018-02-03T14:12:24.658Z,79.71
2018-02-03T14:13:24.637Z,79.61
2018-02-03T14:14:24.676Z,79.48
2018-02-03T14:15:24.638Z,79.72
2018-02-03T14:16:24.669Z,80.09
2018-02-03T14:17:24.668Z,79.61
2018-02-03T14:18:24.670Z,80.2
2018-02-03T14:19:24.745Z,79.06
2018-02-03T14:20:24.778Z,80.04
2018-02-03T14:21:24.782Z,80.07
2018-02-03T14:22:24.761Z,79.97
2018-02-03T14:23:24.749Z,79.9
2018-02-03T14:24:24.766Z,79.74
2018-02-03T14:25:24.766Z,79.67
2018-02-03T14:26:24.910Z,79.54
2018-02-03T14:27:24.747Z,80.56
2018-02-03T14:28:24.772Z,80.09
2018-02-03T14:29:24.790Z,80.42
2018-02-03T14:30:24.818Z,80.38
2018-02-03T14:31:24.804Z,80.67
2018-02-03T14:32:24.762Z,80.83
2018-02-03T14:33:24.812Z,80.99
2018-02-03T14:34:24.757Z,80.7
2018-02-03T14:35:24.834Z,80.51
2018-02-03T14:36:24.805Z,80.5
2018-02-03T14:37:24.752Z,81.14
2018-02-03T14:38:24.772Z,81.26
2018-02-03T14:39:24.775Z,81.33
2018-02-03T14:40:24.741Z,81.29
2018-02-03T14:41:24.767Z,81.29
2018-02-03T14:42:24.798Z,81.37
2018-02-03T14:43:24.789Z,81.45
2018-02-03T14:44:24.747Z,81.02
2018-02-03T14:45:24.773Z,81.24
2018-02-03T14:46:24.764Z,81.26
2018-02-03T14:47:24.756Z,81.43
2018-02-03T14:48:24.767Z,81.82
2018-02-03T14:49:24.815Z,81.9
2018-02-03T14:50:24.821Z,81.79
2018-02-03T14:51:24.797Z,82.38
2018-02-03T14:52:24.818Z,82.43
2018-02-03T14:53:24.826Z,82.33
2018-02-03T14:54:24.802Z,82.43
2018-02-03T14:55:24.866Z,82.89
2018-02-03T14:56:24.843Z,82.98
2018-02-03T14:57:24.802Z,82.99
2018-02-03T14:58:24.795Z,83.71
2018-02-03T14:59:24.836Z,82.72
2018-02-03T15:00:25.220Z,84.11
2018-02-03T15:01:24.797Z,83.56
2018-02-03T15:02:24.854Z,84.28
2018-02-03T15:03:24.809Z,83.61
2018-02-03T15:04:24.867Z,83.72
2018-02-03T15:05:24.809Z,84.99
2018-02-03T15:06:24.907Z,85.12
2018-02-03T15:07:24.865Z,86.48
2018-02-03T15:08:24.869Z,86.3
2018-02-03T15:09:24.820Z,87.05
2018-02-03T15:10:24.817Z,87.65
2018-02-03T15:11:24.924Z,87.57
2018-02-03T15:12:24.783Z,87.07
2018-02-03T15:13:24.801Z,88.41
2018-02-03T15:14:24.802Z,88.26
2018-02-03T15:15:24.839Z,88.87
2018-02-03T15:16:24.857Z,88.55
2018-02-03T15:17:24.837Z,88.05
2018-02-03T15:18:24.826Z,88.27
2018-02-03T15:19:24.006Z,88.04
2018-02-03T15:20:24.013Z,87.79
2018-02-03T15:21:23.984Z,88.4
2018-02-03T15:22:24.016Z,88.71
2018-02-03T15:23:24.060Z,89.09
2018-02-03T15:24:24.020Z,88.39
2018-02-03T15:25:24.019Z,87.9
2018-02-03T15:26:24.032Z,88.21
2018-02-03T15:27:24.017Z,88.65
2018-02-03T15:28:24.020Z,88.06
2018-02-03T15:29:23.981Z,87.86
2018-02-03T15:30:24.007Z,87.41
2018-02-03T15:31:24.025Z,87.55
2018-02-03T15:32:24.037Z,88.07
2018-02-03T15:33:24.044Z,88.13
2018-02-03T15:34:24.068Z,88.32
2018-02-03T15:35:24.058Z,87.94
2018-02-03T15:36:24.101Z,87.99
2018-02-03T15:37:24.068Z,87.93
2018-02-03T15:38:23.999Z,87.78
2018-02-03T15:39:24.043Z,88.37
2018-02-03T15:40:24.023Z,88.04
2018-02-03T15:41:24.010Z,87.93
2018-02-03T15:42:24.012Z,88.1
2018-02-03T15:43:24.041Z,87.84
2018-02-03T15:44:24.035Z,87.65
2018-02-03T15:45:24.038Z,87.43
2018-02-03T15:46:24.048Z,87.81
2018-02-03T15:47:24.042Z,87.72
2018-02-03T15:48:24.124Z,88.2
2018-02-03T15:49:24.028Z,87.94
2018-02-03T15:50:24.218Z,87.81
2018-02-03T15:51:24.251Z,87.41
2018-02-03T15:52:24.230Z,87.79
2018-02-03T15:53:24.241Z,87.74
2018-02-03T15:54:24.237Z,88.07
2018-02-03T15:55:24.242Z,87.71
2018-02-03T15:56:24.225Z,87.62
2018-02-03T15:57:24.312Z,87.55
2018-02-03T15:58:24.247Z,88.02
2018-02-03T15:59:24.243Z,87.95
2018-02-03T16:00:24.242Z,88.07
2018-02-03T16:01:24.319Z,88.25
2018-02-03T16:02:24.345Z,87.65
2018-02-03T16:03:24.254Z,87.43
2018-02-03T16:04:24.247Z,87.34
2018-02-03T16:05:24.218Z,87.25
2018-02-03T16:06:24.236Z,87.37
2018-02-03T16:07:24.575Z,87.5
2018-02-03T16:10:45.442Z,87.84
2018-02-03T16:11:24.296Z,87.98
2018-02-03T16:12:24.302Z,88
2018-02-03T16:13:24.336Z,87.93
2018-02-03T16:14:24.226Z,87.9
2018-02-03T16:16:24.273Z,88.22
2018-02-03T16:17:24.205Z,88.41
2018-02-03T16:18:24.288Z,88.73
2018-02-03T16:19:24.235Z,88.9
2018-02-03T16:20:24.398Z,88.92
2018-02-03T16:21:24.386Z,90.21
2018-02-03T16:22:24.375Z,89.75
2018-02-03T16:23:24.450Z,89.3
2018-02-03T16:24:24.368Z,89.07
2018-02-03T16:25:24.401Z,88.88
2018-02-03T16:26:24.382Z,88.91
2018-02-03T16:27:24.389Z,89.9
2018-02-03T16:28:24.456Z,89.25
2018-02-03T16:29:24.404Z,88.42
2018-02-03T16:30:24.388Z,88.3
2018-02-03T16:31:24.394Z,88.34
2018-02-03T16:32:24.423Z,88.8
2018-02-03T16:33:24.406Z,89.22
2018-02-03T16:34:24.431Z,89.28
2018-02-03T16:35:24.398Z,88.83
2018-02-03T16:36:24.407Z,89
2018-02-03T16:37:24.424Z,88.79
2018-02-03T16:38:24.462Z,89.86
2018-02-03T16:39:24.410Z,89.82
2018-02-03T16:40:24.418Z,89.42
2018-02-03T16:41:24.536Z,89.08
2018-02-03T16:42:24.400Z,89.6
2018-02-03T16:43:24.451Z,89.14
2018-02-03T16:44:24.415Z,90.11
2018-02-03T16:45:24.400Z,89.93
2018-02-03T16:46:24.417Z,89.83
2018-02-03T16:47:24.410Z,89.48
2018-02-03T16:48:24.422Z,90.91
2018-02-03T16:49:24.444Z,90.25
2018-02-03T16:50:24.398Z,89.83
2018-02-03T16:51:24.451Z,89.27
2018-02-03T16:52:24.467Z,89.12
2018-02-03T16:53:24.439Z,89.23
2018-02-03T16:54:24.883Z,90.11
2018-02-03T16:55:24.483Z,90.65
2018-02-03T16:56:24.428Z,89.57
2018-02-03T16:57:24.453Z,89.06
2018-02-03T16:58:24.435Z,89.87
2018-02-03T16:59:24.452Z,89.44
2018-02-03T17:00:24.489Z,90.58
2018-02-03T17:01:24.445Z,89.48
2018-02-03T17:02:24.457Z,89.31
2018-02-03T17:03:24.501Z,89.53
2018-02-03T17:04:24.525Z,89.54
2018-02-03T17:05:24.422Z,88.94
2018-02-03T17:06:24.467Z,89.23
2018-02-03T17:07:24.435Z,89.04
2018-02-03T17:08:24.450Z,88.88
2018-02-03T17:09:24.483Z,89.09
2018-02-03T17:10:24.495Z,88.94
2018-02-03T17:11:24.497Z,89.71
2018-02-03T17:12:24.448Z,89.72
2018-02-03T17:13:24.458Z,89.08
2018-02-03T17:14:24.460Z,88.92
2018-02-03T17:15:24.491Z,89.23
2018-02-03T17:16:24.428Z,89.27
2018-02-03T17:17:24.477Z,89.65
2018-02-03T17:18:24.445Z,89.49
2018-02-03T17:19:24.451Z,89.54
2018-02-03T17:20:24.448Z,89.61
2018-02-03T17:21:24.795Z,89.7
2018-02-03T17:22:24.688Z,89.81
2018-02-03T17:23:24.704Z,90.26
2018-02-03T17:24:24.696Z,90.74
2018-02-03T17:25:24.685Z,90.45
2018-02-03T17:26:24.678Z,89.98
2018-02-03T17:27:24.932Z,89.47
2018-02-03T17:28:25.408Z,89.91
2018-02-03T17:29:24.661Z,89.56
2018-02-03T17:30:24.675Z,89.31
2018-02-03T17:31:24.677Z,89.81
2018-02-03T17:32:24.956Z,89.41
2018-02-03T17:33:24.692Z,89.67
2018-02-03T17:34:24.722Z,89.96
2018-02-03T17:35:24.716Z,89.52
2018-02-03T17:36:24.676Z,89.92
2018-02-03T17:37:24.732Z,89.83
2018-02-03T17:38:24.772Z,89.4
2018-02-03T17:39:24.744Z,89.28
2018-02-03T17:40:24.687Z,89.32
2018-02-03T17:41:24.725Z,89.35
2018-02-03T17:42:24.730Z,89.81
2018-02-03T17:43:24.751Z,89.48
2018-02-03T17:44:24.702Z,90.03
2018-02-03T17:45:24.695Z,89.6
2018-02-03T17:46:24.683Z,89.82
2018-02-03T17:47:24.763Z,89.56
2018-02-03T17:48:24.793Z,89.16
2018-02-03T17:49:24.697Z,88.51
2018-02-03T17:50:24.765Z,88.61
2018-02-03T17:51:24.615Z,88.81
2018-02-03T17:52:24.654Z,88.81
2018-02-03T17:53:24.611Z,89.21
2018-02-03T17:54:24.613Z,88.56
2018-02-03T17:55:24.593Z,88.24
2018-02-03T17:56:24.633Z,88.19
2018-02-03T17:57:24.620Z,88.22
2018-02-03T17:58:24.607Z,88.33
2018-02-03T17:59:24.588Z,88.47
2018-02-03T18:00:24.628Z,88.32
2018-02-03T18:01:24.650Z,88.45
2018-02-03T18:02:24.602Z,88.49
2018-02-03T18:03:24.785Z,88.5
2018-02-03T18:04:24.625Z,88.41
2018-02-03T18:05:24.631Z,88.46
2018-02-03T18:06:24.639Z,88.92
2018-02-03T18:07:24.656Z,89.04
2018-02-03T18:08:24.635Z,88.99
2018-02-03T18:09:24.597Z,88.71
2018-02-03T18:10:24.638Z,88.68
2018-02-03T18:11:24.612Z,88.67
2018-02-03T18:12:24.622Z,88.54
2018-02-03T18:13:24.612Z,89.03
2018-02-03T18:14:24.605Z,89.16
2018-02-03T18:15:24.612Z,89.23
2018-02-03T18:16:24.699Z,88.68
2018-02-03T18:17:24.607Z,89.12
2018-02-03T18:18:24.653Z,88.55
2018-02-03T18:19:24.632Z,88.54
2018-02-03T18:20:24.611Z,88.58
2018-02-03T18:21:24.659Z,88.65
2018-02-03T18:22:24.783Z,88.97
2018-02-03T18:23:24.782Z,88.56
2018-02-03T18:24:24.789Z,88.55
2018-02-03T18:25:24.812Z,88.74
2018-02-03T18:26:24.811Z,88.77
2018-02-03T18:27:24.770Z,88.6
2018-02-03T18:28:24.957Z,89.12
2018-02-03T18:29:24.801Z,89.27
2018-02-03T18:30:24.810Z,88.95
2018-02-03T18:31:24.866Z,89.05
2018-02-03T18:32:24.808Z,88.98
2018-02-03T18:33:24.845Z,89.12
2018-02-03T18:34:24.817Z,89.13
2018-02-03T18:35:24.821Z,89.14
2018-02-03T18:36:24.804Z,89.25
2018-02-03T18:37:24.776Z,89.04
2018-02-03T18:38:24.772Z,89.05
2018-02-03T18:39:24.809Z,88.97
2018-02-03T18:40:24.821Z,89.01
2018-02-03T18:41:24.798Z,89.41
2018-02-03T18:42:24.778Z,89.41
2018-02-03T18:43:24.798Z,89.4
2018-02-03T18:44:24.786Z,89.46
2018-02-03T18:45:24.812Z,89.39
2018-02-03T18:46:24.846Z,89.26
2018-02-03T18:47:24.813Z,89.65
2018-02-03T18:48:28.054Z,89.46
2018-02-03T18:49:26.079Z,89.56
2018-02-03T18:50:24.827Z,89.41
2018-02-03T18:51:27.370Z,89.61
2018-02-03T18:52:23.917Z,89.39
2018-02-03T18:53:23.931Z,89.43
2018-02-03T18:54:23.962Z,89.2
2018-02-03T18:55:23.930Z,89.42
2018-02-03T18:56:23.928Z,89.5
2018-02-03T18:57:24.002Z,89.56
2018-02-03T18:58:23.946Z,89.58
2018-02-03T18:59:23.966Z,90.02
2018-02-03T19:00:23.961Z,90.19
2018-02-03T19:01:23.938Z,89.77
2018-02-03T19:02:23.984Z,89.63
2018-02-03T19:03:23.940Z,89.94
2018-02-03T19:04:24.060Z,89.84
2018-02-03T19:05:23.928Z,90.25
2018-02-03T19:06:23.945Z,90.68
2018-02-03T19:07:23.906Z,89.89
2018-02-03T19:08:23.948Z,89.65
2018-02-03T19:09:23.912Z,89.28
2018-02-03T19:10:23.959Z,89.04
2018-02-03T19:11:23.914Z,89.06
2018-02-03T19:12:23.924Z,89.32
2018-02-03T19:13:23.943Z,89.22
2018-02-03T19:14:23.969Z,89.1
2018-02-03T19:15:23.973Z,89
2018-02-03T19:16:24.103Z,89.21
2018-02-03T19:17:23.948Z,89.18
2018-02-03T19:18:23.930Z,89.2
2018-02-03T19:19:23.951Z,89
2018-02-03T19:20:23.939Z,89.12
2018-02-03T19:21:23.944Z,89.19
2018-02-03T19:22:24.000Z,89.43
2018-02-03T19:23:24.413Z,89.27
2018-02-03T19:24:24.363Z,89.24
2018-02-03T19:25:24.374Z,89.18
2018-02-03T19:26:24.358Z,89.32
2018-02-03T19:27:24.357Z,89.35
2018-02-03T19:28:24.416Z,89.22
2018-02-03T19:29:24.358Z,89.49
2018-02-03T19:30:24.387Z,89.28
2018-02-03T19:31:24.340Z,89.36
2018-02-03T19:32:24.361Z,89.52
2018-02-03T19:33:24.539Z,89.58
2018-02-03T19:34:24.418Z,89.52
2018-02-03T19:35:24.388Z,89.37
2018-02-03T19:36:24.379Z,89.57
2018-02-03T19:37:24.355Z,89.46
2018-02-03T19:38:24.385Z,89.38
2018-02-03T19:39:24.366Z,89.28
2018-02-03T19:40:24.368Z,89.44
2018-02-03T19:41:24.486Z,89.6
2018-02-03T19:42:24.485Z,89.56
2018-02-03T19:43:24.411Z,89.45
2018-02-03T19:44:24.463Z,89.51
2018-02-03T19:45:24.405Z,89.51
2018-02-03T19:46:24.378Z,89.56
2018-02-03T19:47:24.370Z,89.46
2018-02-03T19:48:24.358Z,89.54
2018-02-03T19:49:24.419Z,89.45
2018-02-03T19:50:24.453Z,89.45
2018-02-03T19:51:24.372Z,89.53
2018-02-03T19:52:24.376Z,89.54
2018-02-03T19:53:24.442Z,89.56
2018-02-03T19:54:24.429Z,89.87
2018-02-03T19:55:24.664Z,89.91
2018-02-03T19:56:24.505Z,89.82
2018-02-03T19:57:24.475Z,89.77
2018-02-03T19:58:24.451Z,90.24
2018-02-03T19:59:24.441Z,90.49
2018-02-03T20:00:24.481Z,90.47
2018-02-03T20:01:24.452Z,90.09
2018-02-03T20:02:24.455Z,90.03
2018-02-03T20:03:24.478Z,89.99
2018-02-03T20:04:24.496Z,89.73
2018-02-03T20:05:24.478Z,89.69
2018-02-03T20:06:24.473Z,89.64
2018-02-03T20:07:24.555Z,89.8
2018-02-03T20:08:24.501Z,89.73
2018-02-03T20:09:24.434Z,89.75
2018-02-03T20:10:24.447Z,89.64
2018-02-03T20:11:24.518Z,89.98
2018-02-03T20:12:24.626Z,89.69
2018-02-03T20:13:24.479Z,89.52
2018-02-03T20:14:24.636Z,89.74
2018-02-03T20:15:24.461Z,89.73
2018-02-03T20:16:24.472Z,89.82
2018-02-03T20:17:24.444Z,89.67
2018-02-03T20:18:24.491Z,89.72
2018-02-03T20:19:24.433Z,89.59
2018-02-03T20:20:24.460Z,89.84
2018-02-03T20:21:24.487Z,89.88
2018-02-03T20:22:24.447Z,89.83
2018-02-03T20:23:24.874Z,89.74
2018-02-03T20:24:24.453Z,89.84
2018-02-03T20:25:24.447Z,89.62
2018-02-03T20:26:24.447Z,89.65
2018-02-03T20:27:24.444Z,89.9
2018-02-03T20:28:24.470Z,89.62
2018-02-03T20:29:24.506Z,89.82
2018-02-03T20:30:24.512Z,89.87
2018-02-03T20:31:24.469Z,90.15
2018-02-03T20:32:24.527Z,89.92
2018-02-03T20:33:24.552Z,89.9
2018-02-03T20:34:24.527Z,89.96
2018-02-03T20:35:24.445Z,90.08
2018-02-03T20:36:24.470Z,89.85
2018-02-03T20:37:24.491Z,89.74
2018-02-03T20:38:24.450Z,89.83
2018-02-03T20:39:24.443Z,89.97
2018-02-03T20:40:24.604Z,89.93
2018-02-03T20:41:24.488Z,89.92
2018-02-03T20:42:24.482Z,90.1
2018-02-03T20:43:24.465Z,89.92
2018-02-03T20:44:24.457Z,90.04
2018-02-03T20:45:24.439Z,89.65
2018-02-03T20:46:24.451Z,89.69
2018-02-03T20:47:24.533Z,90.23
2018-02-03T20:48:24.486Z,90.09
2018-02-03T20:49:24.454Z,90.1
2018-02-03T20:50:24.486Z,89.98
2018-02-03T20:51:24.457Z,89.71
2018-02-03T20:52:24.540Z,89.79
2018-02-03T20:53:24.443Z,89.88
2018-02-03T20:54:24.492Z,89.67
2018-02-03T20:55:24.462Z,89.64
2018-02-03T20:56:24.462Z,89.74
2018-02-03T20:57:24.507Z,89.86
2018-02-03T20:58:24.477Z,89.74
2018-02-03T20:59:24.464Z,89.83
2018-02-03T21:00:24.474Z,90.02
2018-02-03T21:01:24.490Z,90.22
2018-02-03T21:02:24.483Z,90.07
2018-02-03T21:03:24.497Z,90.03
2018-02-03T21:04:24.610Z,90.02
2018-02-03T21:05:24.484Z,89.8
2018-02-03T21:06:24.471Z,90.18
2018-02-03T21:07:24.522Z,90.08
2018-02-03T21:08:24.472Z,89.78
2018-02-03T21:09:24.463Z,89.96
2018-02-03T21:10:24.501Z,90.26
2018-02-03T21:11:24.472Z,90.58
2018-02-03T21:12:24.460Z,90.15
2018-02-03T21:13:24.530Z,90.2
2018-02-03T21:14:24.800Z,90.44
2018-02-03T21:15:24.466Z,90.27
2018-02-03T21:16:24.489Z,90
2018-02-03T21:17:24.619Z,89.74
2018-02-03T21:18:24.487Z,89.61
2018-02-03T21:19:24.509Z,89.83
2018-02-03T21:20:24.512Z,89.51
2018-02-03T21:21:24.495Z,89.49
2018-02-03T21:22:24.499Z,89.53
2018-02-03T21:23:24.547Z,89.58
2018-02-03T21:24:24.518Z,89.53
2018-02-03T21:25:24.453Z,89.41
2018-02-03T21:26:24.374Z,89.59
2018-02-03T21:27:24.398Z,89.62
2018-02-03T21:28:24.341Z,89.29
2018-02-03T21:29:24.381Z,89.32
2018-02-03T21:30:24.353Z,89.37
2018-02-03T21:31:24.360Z,89.42
2018-02-03T21:32:24.309Z,89.24
2018-02-03T21:33:24.371Z,89.61
2018-02-03T21:34:24.333Z,89.74
2018-02-03T21:35:24.423Z,89.41
2018-02-03T21:36:24.339Z,89.23
2018-02-03T21:37:24.384Z,89.27
2018-02-03T21:38:24.315Z,89.42
2018-02-03T21:39:24.339Z,89.4
2018-02-03T21:40:24.339Z,89.44
2018-02-03T21:41:24.340Z,89.32
2018-02-03T21:42:24.338Z,89.43
2018-02-03T21:43:24.338Z,89.32
2018-02-03T21:44:24.348Z,89.09
2018-02-03T21:45:24.340Z,89.1
2018-02-03T21:46:24.348Z,88.96
2018-02-03T21:47:24.379Z,88.82
2018-02-03T21:48:24.347Z,88.77
2018-02-03T21:49:24.335Z,88.8
2018-02-03T21:50:24.363Z,88.96
2018-02-03T21:51:25.127Z,88.94
2018-02-03T21:52:24.471Z,88.72
2018-02-03T21:53:24.353Z,89.08
2018-02-03T21:54:24.327Z,88.58
2018-02-03T21:55:24.542Z,88.5
2018-02-03T21:56:23.911Z,88.35
2018-02-03T21:57:23.939Z,88.43
2018-02-03T21:58:23.984Z,88.41
2018-02-03T21:59:23.942Z,88.35
2018-02-03T22:00:23.928Z,88.49
2018-02-03T22:01:23.920Z,88.75
2018-02-03T22:02:23.924Z,89.03
2018-02-03T22:03:23.965Z,88.94
2018-02-03T22:04:23.971Z,89.09
2018-02-03T22:05:23.949Z,88.94
2018-02-03T22:06:23.943Z,88.76
2018-02-03T22:07:23.980Z,88.85
2018-02-03T22:08:23.937Z,88.98
2018-02-03T22:09:23.931Z,88.89
2018-02-03T22:10:24.019Z,88.77
2018-02-03T22:11:23.957Z,88.78
2018-02-03T22:12:24.645Z,88.59
2018-02-03T22:13:24.533Z,88.79
2018-02-03T22:14:23.937Z,88.77
2018-02-03T22:15:24.055Z,88.89
2018-02-03T22:16:23.999Z,89.11
2018-02-03T22:17:23.987Z,89.17
2018-02-03T22:18:23.894Z,88.97
2018-02-03T22:19:23.935Z,88.94
2018-02-03T22:20:23.913Z,88.78
2018-02-03T22:21:24.282Z,88.75
2018-02-03T22:22:23.988Z,88.88
2018-02-03T22:23:24.005Z,88.87
2018-02-03T22:24:24.805Z,88.86
2018-02-03T22:25:23.993Z,88.87
2018-02-03T22:26:24.001Z,88.69
2018-02-03T22:27:24.408Z,88.58
2018-02-03T22:28:24.406Z,88.25
2018-02-03T22:29:24.546Z,88.45
2018-02-03T22:30:24.393Z,88.5
2018-02-03T22:31:24.445Z,88.71
2018-02-03T22:32:24.440Z,88.73
2018-02-03T22:33:24.416Z,88.56
2018-02-03T22:34:24.431Z,88.49
2018-02-03T22:35:24.471Z,88.73
2018-02-03T22:36:24.403Z,88.96
2018-02-03T22:37:24.494Z,88.85
2018-02-03T22:38:25.898Z,89.15
2018-02-03T22:39:26.911Z,89.17
2018-02-03T22:40:24.415Z,88.83
2018-02-03T22:41:25.934Z,89.01
2018-02-03T22:42:24.511Z,88.81
2018-02-03T22:43:24.383Z,88.86
2018-02-03T22:44:24.403Z,89
2018-02-03T22:45:24.555Z,88.9
2018-02-03T22:46:24.405Z,89.08
2018-02-03T22:47:25.181Z,88.82
2018-02-03T22:48:24.451Z,89.05
2018-02-03T22:49:24.402Z,89.46
2018-02-03T22:50:24.468Z,89.21
2018-02-03T22:51:24.396Z,89.34
2018-02-03T22:52:25.262Z,89.42
2018-02-03T22:53:25.262Z,89.43
2018-02-03T22:54:24.453Z,89.72
2018-02-03T22:55:24.524Z,89.7
2018-02-03T22:56:25.841Z,89.33
2018-02-03T22:57:24.091Z,89.34
2018-02-03T22:58:24.075Z,89.6
2018-02-03T22:59:24.144Z,89.52
2018-02-03T23:00:24.180Z,89.57
2018-02-03T23:01:24.139Z,89.46
2018-02-03T23:02:24.277Z,89.46
2018-02-03T23:03:24.168Z,89.32
2018-02-03T23:04:24.083Z,89.35
2018-02-03T23:05:24.061Z,89.47
2018-02-03T23:06:24.112Z,89.46
2018-02-03T23:07:24.101Z,89.35
2018-02-03T23:08:24.098Z,89.32
2018-02-03T23:09:24.097Z,89.36
2018-02-03T23:10:24.092Z,89.39
2018-02-03T23:11:24.054Z,89.16
2018-02-03T23:12:24.112Z,89.26
2018-02-03T23:13:24.091Z,88.95
2018-02-03T23:14:24.138Z,88.95
2018-02-03T23:15:24.083Z,88.71
2018-02-03T23:16:24.163Z,88.96
2018-02-03T23:17:24.084Z,88.89
2018-02-03T23:18:24.162Z,88.96
2018-02-03T23:19:24.192Z,88.91
2018-02-03T23:20:24.091Z,88.93
2018-02-03T23:21:24.097Z,88.88
2018-02-03T23:22:24.075Z,88.83
2018-02-03T23:23:24.162Z,88.83
2018-02-03T23:24:24.131Z,88.81
2018-02-03T23:25:24.140Z,88.91
2018-02-03T23:26:24.094Z,88.63
2018-02-03T23:27:24.086Z,88.85
2018-02-03T23:28:24.367Z,88.87
2018-02-03T23:29:24.423Z,89.01
2018-02-03T23:30:24.277Z,88.92
2018-02-03T23:31:24.283Z,88.89
2018-02-03T23:32:24.264Z,89.2
2018-02-03T23:33:24.351Z,89.28
2018-02-03T23:34:24.281Z,89.26
2018-02-03T23:35:24.286Z,89.06
2018-02-03T23:36:24.277Z,88.93
2018-02-03T23:37:24.296Z,89.02
2018-02-03T23:38:24.301Z,88.97
2018-02-03T23:39:24.323Z,88.94
2018-02-03T23:40:24.274Z,88.9
2018-02-03T23:41:24.342Z,88.96
2018-02-03T23:42:24.338Z,88.95
2018-02-03T23:43:24.288Z,88.79
2018-02-03T23:44:24.298Z,88.82
2018-02-03T23:45:24.273Z,88.81
2018-02-03T23:46:24.363Z,88.82
2018-02-03T23:47:24.277Z,88.88
2018-02-03T23:48:24.328Z,88.71
2018-02-03T23:49:24.282Z,88.78
2018-02-03T23:50:24.298Z,88.83
2018-02-03T23:51:24.280Z,88.68
2018-02-03T23:52:24.311Z,88.7
2018-02-03T23:53:24.312Z,88.93
2018-02-03T23:54:24.292Z,88.82
2018-02-03T23:55:24.267Z,88.99
2018-02-03T23:56:24.303Z,88.92
2018-02-03T23:57:24.283Z,88.96
2018-02-03T23:58:24.321Z,88.89
2018-02-03T23:59:24.162Z,88.79
